createdAt,value
2023-02-11T00:01:04.843Z,84.5
2023-02-11T00:02:10.118Z,84.5
2023-02-11T00:03:16.392Z,84.5
2023-02-11T00:04:22.685Z,84.5
2023-02-11T00:05:28.940Z,84.5
2023-02-11T00:06:35.211Z,84.5
2023-02-11T00:07:41.489Z,84.5
2023-02-11T00:08:47.760Z,85
2023-02-11T00:09:54.030Z,85
2023-02-11T00:11:00.307Z,85
2023-02-11T00:12:06.613Z,85
2023-02-11T00:13:12.862Z,85
2023-02-11T00:14:19.124Z,85
2023-02-11T00:15:25.428Z,85
2023-02-11T00:16:30.688Z,85
2023-02-11T00:17:36.967Z,85
2023-02-11T00:18:43.238Z,85
2023-02-11T00:19:49.518Z,85
2023-02-11T00:20:55.778Z,85
2023-02-11T00:22:02.110Z,85
2023-02-11T00:24:13.633Z,84.5
2023-02-11T00:25:18.932Z,84.5
2023-02-11T00:26:25.216Z,84.5
2023-02-11T00:27:31.461Z,84.5
2023-02-11T00:28:36.767Z,84.5
2023-02-11T00:29:42.096Z,84.5
2023-02-11T00:30:48.323Z,84.5
2023-02-11T00:31:54.598Z,84.5
2023-02-11T00:33:00.883Z,84.5
2023-02-11T00:34:07.207Z,84.5
2023-02-11T00:35:13.411Z,84.5
2023-02-11T00:36:19.695Z,84.5
2023-02-11T00:37:25.968Z,84.5
2023-02-11T00:38:32.236Z,84.5
2023-02-11T00:39:38.497Z,84.5
2023-02-11T00:40:44.776Z,84.5
2023-02-11T00:41:51.050Z,84
2023-02-11T00:42:57.370Z,84
2023-02-11T00:44:02.616Z,84
2023-02-11T00:45:08.884Z,84.5
2023-02-11T00:46:15.165Z,84.5
2023-02-11T00:47:21.427Z,84.5
2023-02-11T00:48:27.707Z,84.5
2023-02-11T00:49:33.979Z,85
2023-02-11T00:50:40.253Z,85
2023-02-11T00:51:45.552Z,85
2023-02-11T00:52:50.841Z,85
2023-02-11T00:53:56.140Z,85
2023-02-11T00:55:01.431Z,85
2023-02-11T00:56:07.701Z,85
2023-02-11T00:57:13.982Z,85
2023-02-11T00:58:20.253Z,85
2023-02-11T00:59:26.560Z,85
2023-02-11T01:00:32.796Z,85.5
2023-02-11T01:01:39.067Z,85.5
2023-02-11T01:02:45.345Z,85.5
2023-02-11T01:03:51.624Z,85.5
2023-02-11T01:04:57.894Z,85.5
2023-02-11T01:06:04.172Z,85.5
2023-02-11T01:07:10.436Z,85.5
2023-02-11T01:08:16.710Z,85.5
2023-02-11T01:09:21.999Z,86
2023-02-11T01:10:28.276Z,85.5
2023-02-11T01:11:34.559Z,85.5
2023-02-11T01:12:40.822Z,85.5
2023-02-11T01:13:47.099Z,85.5
2023-02-11T01:14:53.361Z,85.5
2023-02-11T01:15:59.638Z,86
2023-02-11T01:17:04.944Z,86
2023-02-11T01:18:10.229Z,86
2023-02-11T01:19:16.500Z,85.5
2023-02-11T01:20:22.810Z,85.5
2023-02-11T01:21:28.073Z,85.5
2023-02-11T01:22:33.370Z,85.5
2023-02-11T01:23:39.638Z,85.5
2023-02-11T01:24:45.938Z,85.5
2023-02-11T01:25:52.198Z,85.5
2023-02-11T01:26:58.458Z,85.5
2023-02-11T01:28:04.733Z,85.5
2023-02-11T01:29:11.005Z,85.5
2023-02-11T01:30:17.301Z,85.5
2023-02-11T01:31:23.553Z,85.5
2023-02-11T01:32:29.822Z,85.5
2023-02-11T01:33:36.109Z,85.5
2023-02-11T01:34:42.381Z,85.5
2023-02-11T01:35:48.653Z,85.5
2023-02-11T01:36:53.934Z,85.5
2023-02-11T01:38:00.208Z,85.5
2023-02-11T01:39:06.485Z,85.5
2023-02-11T01:40:12.752Z,85.5
2023-02-11T01:41:19.023Z,85.5
2023-02-11T01:42:25.303Z,85.5
2023-02-11T01:43:31.580Z,85.5
2023-02-11T01:44:36.876Z,85.5
2023-02-11T01:45:42.147Z,85.5
2023-02-11T01:46:48.430Z,85.5
2023-02-11T01:47:53.728Z,85.5
2023-02-11T01:48:59.105Z,85
2023-02-11T01:50:05.316Z,85.5
2023-02-11T01:51:11.568Z,86
2023-02-11T01:52:17.838Z,86
2023-02-11T01:53:24.108Z,86.5
2023-02-11T01:54:30.411Z,86.5
2023-02-11T01:55:36.655Z,86
2023-02-11T01:56:42.934Z,86
2023-02-11T01:57:49.196Z,86
2023-02-11T01:58:55.492Z,86
2023-02-11T02:00:01.784Z,86
2023-02-11T02:01:08.041Z,86
2023-02-11T02:02:14.306Z,85.5
2023-02-11T02:03:19.588Z,85.5
2023-02-11T02:04:25.855Z,85.5
2023-02-11T02:05:32.130Z,85.5
2023-02-11T02:06:38.405Z,85.5
2023-02-11T02:07:44.699Z,86.5
2023-02-11T02:08:50.949Z,87.5
2023-02-11T02:09:57.225Z,87.5
2023-02-11T02:11:02.529Z,87.5
2023-02-11T02:12:07.811Z,87.5
2023-02-11T02:13:13.112Z,88
2023-02-11T02:14:18.404Z,87.5
2023-02-11T02:15:24.668Z,88
2023-02-11T02:16:30.944Z,88
2023-02-11T02:17:37.224Z,88.5
2023-02-11T02:18:43.516Z,88
2023-02-11T02:19:49.767Z,88
2023-02-11T02:20:56.040Z,88
2023-02-11T02:22:02.307Z,87.5
2023-02-11T02:23:08.589Z,87.5
2023-02-11T02:24:14.868Z,87.5
2023-02-11T02:25:21.127Z,87
2023-02-11T02:26:27.411Z,87
2023-02-11T02:27:33.682Z,87
2023-02-11T02:28:38.962Z,86.5
2023-02-11T02:29:45.300Z,86.5
2023-02-11T02:30:51.513Z,86.5
2023-02-11T02:31:57.774Z,86.5
2023-02-11T02:33:04.052Z,86.5
2023-02-11T02:34:10.335Z,86.5
2023-02-11T02:35:16.604Z,86.5
2023-02-11T02:36:21.900Z,86
2023-02-11T02:37:27.332Z,86.5
2023-02-11T02:38:32.499Z,86.5
2023-02-11T02:39:37.791Z,86.5
2023-02-11T02:40:44.124Z,86.5
2023-02-11T02:41:50.325Z,86.5
2023-02-11T02:42:56.599Z,86.5
2023-02-11T02:44:02.885Z,86.5
2023-02-11T02:45:09.143Z,86.5
2023-02-11T02:46:15.418Z,86.5
2023-02-11T02:47:21.700Z,86.5
2023-02-11T02:48:27.992Z,86.5
2023-02-11T02:49:34.242Z,86.5
2023-02-11T02:50:40.522Z,86.5
2023-02-11T02:51:46.804Z,86.5
2023-02-11T02:52:53.111Z,86.5
2023-02-11T02:53:58.350Z,86.5
2023-02-11T02:55:04.624Z,86.5
2023-02-11T02:56:10.895Z,86
2023-02-11T02:57:17.169Z,86
2023-02-11T02:58:23.451Z,86.5
2023-02-11T02:59:29.780Z,86.5
2023-02-11T03:00:35.990Z,86.5
2023-02-11T03:01:41.301Z,86.5
2023-02-11T03:02:46.579Z,86
2023-02-11T03:03:52.858Z,86
2023-02-11T03:04:59.122Z,86
2023-02-11T03:06:05.438Z,86
2023-02-11T03:07:11.669Z,86
2023-02-11T03:08:17.946Z,85
2023-02-11T03:09:24.265Z,85
2023-02-11T03:10:30.494Z,85
2023-02-11T03:11:36.764Z,85.5
2023-02-11T03:12:43.036Z,85.5
2023-02-11T03:13:49.307Z,85.5
2023-02-11T03:14:55.586Z,85.5
2023-02-11T03:16:01.856Z,85.5
2023-02-11T03:17:07.138Z,85.5
2023-02-11T03:18:13.440Z,86
2023-02-11T03:19:19.709Z,86
2023-02-11T03:20:26.005Z,86
2023-02-11T03:21:32.238Z,86
2023-02-11T03:22:38.521Z,86.5
2023-02-11T03:23:44.780Z,86.5
2023-02-11T03:24:50.079Z,86.5
2023-02-11T03:25:55.377Z,86.5
2023-02-11T03:27:00.678Z,86.5
2023-02-11T03:28:05.972Z,86.5
2023-02-11T03:29:11.267Z,86.5
2023-02-11T03:30:16.551Z,86.5
2023-02-11T03:31:22.832Z,86.5
2023-02-11T03:32:29.110Z,86
2023-02-11T03:33:35.375Z,86
2023-02-11T03:34:41.652Z,86
2023-02-11T03:35:47.925Z,86
2023-02-11T03:36:54.213Z,86.5
2023-02-11T03:38:00.531Z,86.5
2023-02-11T03:39:06.741Z,86.5
2023-02-11T03:40:13.026Z,86.5
2023-02-11T03:41:19.289Z,86.5
2023-02-11T03:42:25.564Z,86
2023-02-11T03:43:31.829Z,86
2023-02-11T03:44:37.128Z,86
2023-02-11T03:45:43.388Z,86
2023-02-11T03:46:49.687Z,86
2023-02-11T03:47:55.967Z,86
2023-02-11T03:49:02.223Z,86
2023-02-11T03:50:08.486Z,86
2023-02-11T03:51:14.764Z,86
2023-02-11T03:52:21.033Z,86
2023-02-11T03:53:26.342Z,86
2023-02-11T03:54:31.633Z,86
2023-02-11T03:55:37.901Z,86
2023-02-11T03:56:44.174Z,86
2023-02-11T03:57:49.478Z,86
2023-02-11T03:58:54.774Z,86
2023-02-11T04:00:01.039Z,86
2023-02-11T04:01:07.305Z,86
2023-02-11T04:02:13.579Z,86
2023-02-11T04:03:19.855Z,86
2023-02-11T04:04:26.121Z,86
2023-02-11T04:05:32.397Z,86
2023-02-11T04:06:38.674Z,86
2023-02-11T04:07:44.950Z,86
2023-02-11T04:08:51.210Z,86
2023-02-11T04:09:57.494Z,86
2023-02-11T04:11:03.764Z,86
2023-02-11T04:12:10.053Z,86
2023-02-11T04:13:16.309Z,86
2023-02-11T04:14:21.596Z,86
2023-02-11T04:15:27.864Z,86
2023-02-11T04:16:34.139Z,86
2023-02-11T04:17:40.423Z,86
2023-02-11T04:18:46.692Z,85.5
2023-02-11T04:19:52.982Z,85
2023-02-11T04:20:58.264Z,85.5
2023-02-11T04:22:03.552Z,85.5
2023-02-11T04:23:08.854Z,85.5
2023-02-11T04:24:14.144Z,85.5
2023-02-11T04:25:20.413Z,85
2023-02-11T04:26:26.684Z,85
2023-02-11T04:27:32.963Z,85
2023-02-11T04:28:39.243Z,85
2023-02-11T04:29:45.508Z,85.5
2023-02-11T04:30:51.783Z,85.5
2023-02-11T04:31:58.054Z,85.5
2023-02-11T04:33:04.341Z,85
2023-02-11T04:34:10.607Z,85
2023-02-11T04:35:16.880Z,85
2023-02-11T04:36:23.146Z,85.5
2023-02-11T04:37:29.431Z,85.5
2023-02-11T04:38:34.717Z,85.5
2023-02-11T04:39:40.983Z,85
2023-02-11T04:40:47.254Z,85
2023-02-11T04:41:53.545Z,85
2023-02-11T04:42:59.803Z,85
2023-02-11T04:44:06.082Z,85
2023-02-11T04:45:12.343Z,85
2023-02-11T04:46:17.653Z,85
2023-02-11T04:47:22.945Z,85
2023-02-11T04:48:28.242Z,85
2023-02-11T04:49:33.549Z,85
2023-02-11T04:50:39.800Z,85
2023-02-11T04:51:46.071Z,85
2023-02-11T04:52:52.350Z,85
2023-02-11T04:53:58.625Z,84.5
2023-02-11T04:55:04.897Z,84.5
2023-02-11T04:56:11.172Z,84.5
2023-02-11T04:57:17.445Z,84.5
2023-02-11T04:58:23.717Z,85
2023-02-11T04:59:29.990Z,85
2023-02-11T05:00:36.262Z,85
2023-02-11T05:01:42.540Z,85
2023-02-11T05:02:48.810Z,85.5
2023-02-11T05:03:54.100Z,85
2023-02-11T05:05:00.379Z,85
2023-02-11T05:06:06.645Z,85
2023-02-11T05:07:12.916Z,85
2023-02-11T05:08:19.285Z,85
2023-02-11T05:09:25.464Z,85
2023-02-11T05:10:31.727Z,85
2023-02-11T05:11:37.031Z,85
2023-02-11T05:12:42.319Z,85
2023-02-11T05:13:47.623Z,85
2023-02-11T05:14:52.919Z,84.5
2023-02-11T05:15:59.191Z,84.5
2023-02-11T05:17:05.462Z,84.5
2023-02-11T05:18:11.731Z,84.5
2023-02-11T05:19:18.011Z,84.5
2023-02-11T05:20:24.273Z,84.5
2023-02-11T05:21:30.552Z,84.5
2023-02-11T05:22:36.836Z,84.5
2023-02-11T05:23:43.098Z,84.5
2023-02-11T05:24:49.370Z,84.5
2023-02-11T05:25:55.649Z,84.5
2023-02-11T05:27:01.922Z,84
2023-02-11T05:28:08.224Z,84.5
2023-02-11T05:29:13.485Z,84.5
2023-02-11T05:30:19.812Z,84.5
2023-02-11T05:31:26.028Z,84.5
2023-02-11T05:32:32.306Z,85
2023-02-11T05:33:38.568Z,85
2023-02-11T05:34:44.861Z,85.5
2023-02-11T05:35:51.150Z,86
2023-02-11T05:36:56.422Z,86
2023-02-11T05:38:01.717Z,86
2023-02-11T05:39:07.009Z,86.5
2023-02-11T05:40:13.280Z,86.5
2023-02-11T05:41:18.585Z,86
2023-02-11T05:42:24.878Z,86.5
2023-02-11T05:43:31.121Z,86.5
2023-02-11T05:44:37.393Z,87
2023-02-11T05:45:43.654Z,87
2023-02-11T05:46:49.933Z,87
2023-02-11T05:47:56.226Z,87
2023-02-11T05:49:02.568Z,87
2023-02-11T05:50:08.760Z,87.5
2023-02-11T05:51:15.030Z,87.5
2023-02-11T05:52:21.302Z,87.5
2023-02-11T05:53:27.582Z,87.5
2023-02-11T05:54:33.846Z,87.5
2023-02-11T05:55:39.146Z,88
2023-02-11T05:56:45.471Z,88
2023-02-11T05:57:51.684Z,88
2023-02-11T05:58:57.957Z,88
2023-02-11T06:00:04.263Z,88
2023-02-11T06:01:10.508Z,88
2023-02-11T06:02:15.807Z,88
2023-02-11T06:03:21.099Z,88.5
2023-02-11T06:04:27.368Z,88.5
2023-02-11T06:05:32.665Z,88.5
2023-02-11T06:06:38.028Z,88.5
2023-02-11T06:07:44.235Z,88.5
2023-02-11T06:08:50.568Z,89
2023-02-11T06:09:56.791Z,89
2023-02-11T06:11:03.045Z,89
2023-02-11T06:12:09.332Z,89
2023-02-11T06:13:15.609Z,89
2023-02-11T06:14:21.863Z,89
2023-02-11T06:15:28.175Z,88.5
2023-02-11T06:16:34.407Z,88.5
2023-02-11T06:17:40.688Z,88.5
2023-02-11T06:18:46.955Z,88.5
2023-02-11T06:19:53.229Z,88.5
2023-02-11T06:20:58.534Z,88.5
2023-02-11T06:22:04.802Z,88
2023-02-11T06:23:11.065Z,88
2023-02-11T06:24:17.358Z,88
2023-02-11T06:25:23.605Z,88
2023-02-11T06:26:29.885Z,88.5
2023-02-11T06:27:36.157Z,88.5
2023-02-11T06:28:41.457Z,88.5
2023-02-11T06:29:46.747Z,88.5
2023-02-11T06:30:52.048Z,88.5
2023-02-11T06:31:57.343Z,89
2023-02-11T06:33:03.630Z,88.5
2023-02-11T06:34:09.879Z,89
2023-02-11T06:35:16.167Z,89
2023-02-11T06:36:22.452Z,89
2023-02-11T06:37:28.706Z,89
2023-02-11T06:38:34.984Z,89
2023-02-11T06:39:41.243Z,89
2023-02-11T06:40:47.527Z,89
2023-02-11T06:41:53.800Z,89
2023-02-11T06:43:00.091Z,89
2023-02-11T06:44:06.341Z,89
2023-02-11T06:45:12.615Z,88.5
2023-02-11T06:46:17.905Z,88
2023-02-11T06:47:24.175Z,88
2023-02-11T06:48:30.449Z,88
2023-02-11T06:49:36.721Z,88
2023-02-11T06:50:42.999Z,88
2023-02-11T06:51:49.285Z,87.5
2023-02-11T06:52:55.576Z,87.5
2023-02-11T06:54:00.839Z,87.5
2023-02-11T06:55:06.134Z,87.5
2023-02-11T06:56:11.431Z,87.5
2023-02-11T06:58:22.992Z,87
2023-02-11T06:59:29.267Z,85.5
2023-02-11T07:00:35.538Z,85.5
2023-02-11T07:01:41.819Z,85.5
2023-02-11T07:02:48.085Z,85.5
2023-02-11T07:03:54.356Z,85.5
2023-02-11T07:05:00.697Z,85
2023-02-11T07:06:06.907Z,84.5
2023-02-11T07:07:12.199Z,84
2023-02-11T07:08:18.563Z,84.5
2023-02-11T07:09:24.751Z,84
2023-02-11T07:10:31.021Z,83.5
2023-02-11T07:11:37.330Z,84
2023-02-11T07:12:43.612Z,84.5
2023-02-11T07:13:49.843Z,84
2023-02-11T07:14:56.117Z,84
2023-02-11T07:16:02.449Z,83
2023-02-11T07:17:08.662Z,82.5
2023-02-11T07:18:14.932Z,82
2023-02-11T07:19:21.199Z,82
2023-02-11T07:20:26.555Z,81.5
2023-02-11T07:21:31.795Z,81.5
2023-02-11T07:22:37.119Z,82.5
2023-02-11T07:23:42.382Z,83
2023-02-11T07:24:48.657Z,83
2023-02-11T07:25:55.013Z,83.5
2023-02-11T07:27:01.202Z,83.5
2023-02-11T07:28:07.510Z,83.5
2023-02-11T07:29:13.766Z,84
2023-02-11T07:30:20.018Z,84
2023-02-11T07:31:26.296Z,84
2023-02-11T07:32:32.605Z,84.5
2023-02-11T07:33:38.840Z,84.5
2023-02-11T07:34:45.161Z,84
2023-02-11T07:35:51.403Z,84.5
2023-02-11T07:36:57.657Z,84
2023-02-11T07:38:02.963Z,84
2023-02-11T07:39:09.214Z,84
2023-02-11T07:40:15.515Z,84
2023-02-11T07:41:21.767Z,84
2023-02-11T07:42:28.169Z,83.5
2023-02-11T07:43:34.299Z,83
2023-02-11T07:44:40.585Z,83
2023-02-11T07:45:45.928Z,83
2023-02-11T07:47:57.440Z,83
2023-02-11T07:49:03.716Z,83
2023-02-11T07:50:09.021Z,82.5
2023-02-11T07:51:14.309Z,82.5
2023-02-11T07:52:20.582Z,82
2023-02-11T07:53:26.849Z,82.5
2023-02-11T07:54:33.154Z,82.5
2023-02-11T07:55:39.389Z,82.5
2023-02-11T07:56:45.669Z,82
2023-02-11T07:57:51.940Z,82
2023-02-11T07:58:58.208Z,81.5
2023-02-11T08:00:04.490Z,82
2023-02-11T08:01:10.771Z,82
2023-02-11T08:02:17.036Z,82
2023-02-11T08:03:23.309Z,82.5
2023-02-11T08:04:29.576Z,82
2023-02-11T08:05:34.870Z,81.5
2023-02-11T08:06:41.149Z,81
2023-02-11T08:07:47.414Z,81.5
2023-02-11T08:08:53.696Z,81.5
2023-02-11T08:09:59.960Z,81.5
2023-02-11T08:11:06.231Z,81
2023-02-11T08:12:12.507Z,80.5
2023-02-11T08:13:17.804Z,80
2023-02-11T08:14:23.174Z,80
2023-02-11T08:15:28.406Z,80.5
2023-02-11T08:16:33.718Z,81
2023-02-11T08:17:39.963Z,81
2023-02-11T08:18:46.228Z,80.5
2023-02-11T08:19:52.508Z,81
2023-02-11T08:20:58.774Z,81.5
2023-02-11T08:22:05.050Z,81
2023-02-11T08:23:11.314Z,80.5
2023-02-11T08:24:17.585Z,81
2023-02-11T08:25:23.862Z,81
2023-02-11T08:26:30.132Z,80
2023-02-11T08:27:36.420Z,80
2023-02-11T08:28:42.672Z,80.5
2023-02-11T08:29:48.951Z,80.5
2023-02-11T08:30:54.266Z,79.5
2023-02-11T08:32:00.512Z,79.5
2023-02-11T08:33:06.778Z,79.5
2023-02-11T08:34:13.063Z,79.5
2023-02-11T08:35:19.332Z,79
2023-02-11T08:36:25.603Z,79
2023-02-11T08:37:31.898Z,79.5
2023-02-11T08:38:38.153Z,79.5
2023-02-11T08:39:44.408Z,79
2023-02-11T08:40:50.697Z,79.5
2023-02-11T08:41:55.988Z,80
2023-02-11T08:43:01.288Z,79.5
2023-02-11T08:44:06.574Z,80
2023-02-11T08:45:11.863Z,80
2023-02-11T08:46:18.147Z,80
2023-02-11T08:47:24.428Z,80
2023-02-11T08:48:30.690Z,80
2023-02-11T08:49:36.951Z,80
2023-02-11T08:50:43.217Z,79.5
2023-02-11T08:51:49.540Z,80
2023-02-11T08:52:55.773Z,79
2023-02-11T08:54:02.067Z,78
2023-02-11T08:55:08.316Z,78
2023-02-11T08:56:14.594Z,78
2023-02-11T08:57:20.902Z,78
2023-02-11T08:58:27.143Z,78.5
2023-02-11T08:59:32.421Z,78
2023-02-11T09:00:38.693Z,78
2023-02-11T09:01:44.967Z,78
2023-02-11T09:02:51.239Z,77.5
2023-02-11T09:03:57.510Z,77
2023-02-11T09:05:03.794Z,76.5
2023-02-11T09:06:10.056Z,76.5
2023-02-11T09:07:15.360Z,76
2023-02-11T09:08:20.663Z,76.5
2023-02-11T09:09:26.014Z,76.5
2023-02-11T09:10:31.238Z,76.5
2023-02-11T09:11:37.508Z,77.5
2023-02-11T09:12:43.780Z,77
2023-02-11T09:13:50.050Z,76.5
2023-02-11T09:14:56.353Z,77
2023-02-11T09:16:02.597Z,77.5
2023-02-11T09:17:08.880Z,78
2023-02-11T09:18:15.138Z,78
2023-02-11T09:19:21.490Z,78
2023-02-11T09:20:27.686Z,77.5
2023-02-11T09:21:33.965Z,78
2023-02-11T09:22:40.249Z,78.5
2023-02-11T09:23:46.511Z,78.5
2023-02-11T09:24:52.800Z,78.5
2023-02-11T09:27:05.319Z,78
2023-02-11T09:28:10.609Z,78
2023-02-11T09:29:16.881Z,78
2023-02-11T09:30:23.157Z,78.5
2023-02-11T09:31:29.440Z,78
2023-02-11T09:32:35.694Z,78
2023-02-11T09:33:41.969Z,78
2023-02-11T09:34:48.296Z,78
2023-02-11T09:35:54.508Z,78
2023-02-11T09:37:00.787Z,78
2023-02-11T09:38:07.062Z,78
2023-02-11T09:39:13.327Z,78
2023-02-11T09:40:19.601Z,78
2023-02-11T09:41:25.875Z,78
2023-02-11T09:42:31.169Z,77.5
2023-02-11T09:43:37.432Z,77.5
2023-02-11T09:44:43.708Z,77.5
2023-02-11T09:45:49.984Z,77.5
2023-02-11T09:46:56.252Z,78
2023-02-11T09:48:02.536Z,77.5
2023-02-11T09:49:08.803Z,77.5
2023-02-11T09:50:15.074Z,78
2023-02-11T09:51:21.344Z,76.5
2023-02-11T09:52:27.610Z,77
2023-02-11T09:53:33.891Z,76
2023-02-11T09:54:40.162Z,76
2023-02-11T09:55:46.442Z,76
2023-02-11T09:56:51.721Z,75.5
2023-02-11T09:57:57.998Z,75
2023-02-11T09:59:04.278Z,75
2023-02-11T10:00:10.539Z,75
2023-02-11T10:01:16.822Z,74.5
2023-02-11T10:02:23.092Z,74
2023-02-11T10:03:29.370Z,75
2023-02-11T10:04:35.635Z,74.5
2023-02-11T10:05:41.928Z,74
2023-02-11T10:06:48.171Z,74
2023-02-11T10:07:54.488Z,73.5
2023-02-11T10:09:00.716Z,73.5
2023-02-11T10:10:06.994Z,73
2023-02-11T10:11:12.285Z,73.5
2023-02-11T10:12:18.564Z,73
2023-02-11T10:13:24.821Z,73
2023-02-11T10:14:31.091Z,72.5
2023-02-11T10:15:37.367Z,72.5
2023-02-11T10:16:43.632Z,72.5
2023-02-11T10:17:49.915Z,73
2023-02-11T10:18:56.183Z,72.5
2023-02-11T10:20:02.481Z,72.5
2023-02-11T10:21:08.728Z,72.5
2023-02-11T10:22:15.021Z,72.5
2023-02-11T10:23:21.289Z,73
2023-02-11T10:24:27.543Z,73
2023-02-11T10:25:32.860Z,74
2023-02-11T10:26:39.108Z,73
2023-02-11T10:27:45.499Z,73
2023-02-11T10:28:51.696Z,73
2023-02-11T10:29:58.008Z,73.5
2023-02-11T10:31:04.230Z,73
2023-02-11T10:32:10.486Z,72.5
2023-02-11T10:33:16.746Z,72.5
2023-02-11T10:34:23.047Z,72.5
2023-02-11T10:35:29.279Z,72
2023-02-11T10:36:35.566Z,70.5
2023-02-11T10:37:41.924Z,72
2023-02-11T10:38:48.100Z,71.5
2023-02-11T10:39:53.391Z,72
2023-02-11T10:40:59.660Z,72.5
2023-02-11T10:42:05.939Z,73.5
2023-02-11T10:43:12.233Z,72.5
2023-02-11T10:44:18.479Z,73.5
2023-02-11T10:45:24.747Z,74
2023-02-11T10:46:31.023Z,74
2023-02-11T10:47:37.312Z,74
2023-02-11T10:48:42.585Z,72.5
2023-02-11T10:49:48.865Z,72.5
2023-02-11T10:50:54.157Z,73.5
2023-02-11T10:51:59.443Z,73.5
2023-02-11T10:53:04.750Z,72
2023-02-11T10:54:10.027Z,72.5
2023-02-11T10:55:16.300Z,72
2023-02-11T10:56:22.592Z,72
2023-02-11T10:57:28.916Z,72
2023-02-11T10:58:35.134Z,71
2023-02-11T10:59:41.407Z,72
2023-02-11T11:00:47.660Z,72.5
2023-02-11T11:01:53.945Z,73
2023-02-11T11:03:00.229Z,72.5
2023-02-11T11:04:06.660Z,72.5
2023-02-11T11:05:12.873Z,72
2023-02-11T11:06:19.096Z,72
2023-02-11T11:07:25.517Z,71.5
2023-02-11T11:08:30.714Z,70
2023-02-11T11:09:37.030Z,69.5
2023-02-11T11:10:43.135Z,69.5
2023-02-11T11:11:49.529Z,70
2023-02-11T11:12:55.825Z,69
2023-02-11T11:14:02.035Z,69.5
2023-02-11T11:15:08.299Z,70
2023-02-11T11:16:13.639Z,69
2023-02-11T11:17:19.014Z,69
2023-02-11T11:18:24.109Z,67.5
2023-02-11T11:19:29.544Z,68
2023-02-11T11:20:35.827Z,68.5
2023-02-11T11:21:42.121Z,68
2023-02-11T11:22:48.389Z,67.5
2023-02-11T11:23:54.615Z,67
2023-02-11T11:25:00.795Z,67
2023-02-11T11:26:07.030Z,68
2023-02-11T11:27:13.437Z,67.5
2023-02-11T11:28:19.645Z,68
2023-02-11T11:29:25.911Z,68.5
2023-02-11T11:30:32.184Z,67
2023-02-11T11:31:38.454Z,68
2023-02-11T11:32:44.657Z,67
2023-02-11T11:33:49.959Z,68
2023-02-11T11:34:56.221Z,68
2023-02-11T11:36:02.526Z,67
2023-02-11T11:37:08.765Z,68
2023-02-11T11:38:15.040Z,68
2023-02-11T11:39:21.318Z,67
2023-02-11T11:40:27.594Z,67.5
2023-02-11T11:41:33.893Z,67
2023-02-11T11:42:40.155Z,67
2023-02-11T11:43:45.427Z,67.5
2023-02-11T11:44:50.713Z,68.5
2023-02-11T11:45:56.032Z,68.5
2023-02-11T11:47:01.298Z,68.5
2023-02-11T11:48:07.574Z,68.5
2023-02-11T11:49:13.841Z,68
2023-02-11T11:50:20.114Z,68.5
2023-02-11T11:51:26.388Z,68.5
2023-02-11T11:52:32.664Z,69
2023-02-11T11:53:38.924Z,66.5
2023-02-11T11:54:45.200Z,66.5
2023-02-11T11:55:51.477Z,67
2023-02-11T11:56:57.837Z,66.5
2023-02-11T11:58:04.013Z,67
2023-02-11T11:59:10.292Z,66.5
2023-02-11T12:00:16.565Z,65
2023-02-11T12:01:21.846Z,66.5
2023-02-11T12:02:28.140Z,65
2023-02-11T12:03:34.398Z,66
2023-02-11T12:04:40.685Z,66.5
2023-02-11T12:05:46.942Z,65.5
2023-02-11T12:06:53.280Z,66
2023-02-11T12:07:59.518Z,66
2023-02-11T12:09:05.757Z,65.5
2023-02-11T12:10:12.033Z,64.5
2023-02-11T12:11:18.303Z,65.5
2023-02-11T12:12:24.571Z,65
2023-02-11T12:13:30.846Z,64.5
2023-02-11T12:14:37.132Z,65.5
2023-02-11T12:15:42.403Z,64.5
2023-02-11T12:16:48.675Z,65
2023-02-11T12:17:54.949Z,65.5
2023-02-11T12:19:01.224Z,63.5
2023-02-11T12:20:07.486Z,63
2023-02-11T12:21:13.766Z,63.5
2023-02-11T12:22:20.036Z,64.5
2023-02-11T12:23:25.330Z,64
2023-02-11T12:24:30.622Z,64.5
2023-02-11T12:25:35.915Z,62
2023-02-11T12:26:41.296Z,62.5
2023-02-11T12:27:47.488Z,61.5
2023-02-11T12:28:53.758Z,63
2023-02-11T12:30:00.036Z,63
2023-02-11T12:31:06.318Z,63
2023-02-11T12:32:12.576Z,63.5
2023-02-11T12:33:18.839Z,63
2023-02-11T12:34:25.113Z,61.5
2023-02-11T12:35:31.384Z,62
2023-02-11T12:36:37.663Z,64
2023-02-11T12:37:43.935Z,62.5
2023-02-11T12:38:50.219Z,61
2023-02-11T12:39:56.472Z,63.5
2023-02-11T12:41:01.759Z,62
2023-02-11T12:42:08.032Z,63.5
2023-02-11T12:43:14.316Z,64
2023-02-11T12:44:20.583Z,62
2023-02-11T12:45:26.849Z,61
2023-02-11T12:46:33.121Z,60
2023-02-11T12:47:39.403Z,60.5
2023-02-11T12:48:44.708Z,61.5
2023-02-11T12:49:49.974Z,61
2023-02-11T12:50:56.253Z,61.5
2023-02-11T12:52:02.565Z,62
2023-02-11T12:53:08.797Z,62
2023-02-11T12:54:15.072Z,60.5
2023-02-11T12:55:21.358Z,60
2023-02-11T12:56:27.615Z,60.5
2023-02-11T12:57:33.897Z,60
2023-02-11T12:58:40.153Z,61
2023-02-11T12:59:46.428Z,60
2023-02-11T13:00:52.702Z,60
2023-02-11T13:01:58.971Z,60.5
2023-02-11T13:03:05.255Z,60.5
2023-02-11T13:04:10.538Z,60.5
2023-02-11T13:05:16.800Z,63
2023-02-11T13:06:23.077Z,60.5
2023-02-11T13:07:29.351Z,60.5
2023-02-11T13:08:35.632Z,60
2023-02-11T13:09:41.893Z,61
2023-02-11T13:10:48.163Z,61
2023-02-11T13:11:53.469Z,60.5
2023-02-11T13:12:58.760Z,60
2023-02-11T13:14:04.058Z,58.5
2023-02-11T13:15:09.335Z,59.5
2023-02-11T13:16:14.661Z,59
2023-02-11T13:17:19.922Z,59.5
2023-02-11T13:18:26.200Z,60.5
2023-02-11T13:19:32.474Z,60
2023-02-11T13:20:38.748Z,60
2023-02-11T13:21:45.019Z,59.5
2023-02-11T13:22:51.293Z,59.5
2023-02-11T13:23:57.558Z,59.5
2023-02-11T13:25:03.834Z,59.5
2023-02-11T13:26:10.113Z,59
2023-02-11T13:27:16.381Z,59.5
2023-02-11T13:28:22.661Z,59
2023-02-11T13:29:28.921Z,59
2023-02-11T13:30:35.214Z,61
2023-02-11T13:31:41.503Z,59
2023-02-11T13:32:46.770Z,59.5
2023-02-11T13:33:53.045Z,59.5
2023-02-11T13:34:59.309Z,61
2023-02-11T13:36:05.570Z,60.5
2023-02-11T13:37:11.840Z,60.5
2023-02-11T13:38:18.114Z,60
2023-02-11T13:39:23.405Z,60.5
2023-02-11T13:40:28.705Z,63.5
2023-02-11T13:41:34.000Z,61.5
2023-02-11T13:42:39.308Z,61.5
2023-02-11T13:43:45.557Z,63
2023-02-11T13:44:51.824Z,63.5
2023-02-11T13:45:58.099Z,62
2023-02-11T13:47:04.397Z,63.5
2023-02-11T13:48:10.645Z,62.5
2023-02-11T13:49:16.920Z,61.5
2023-02-11T13:50:23.193Z,61.5
2023-02-11T13:51:29.459Z,61.5
2023-02-11T13:52:35.731Z,62
2023-02-11T13:53:42.010Z,63.5
2023-02-11T13:54:48.278Z,62
2023-02-11T13:55:54.593Z,61.5
2023-02-11T13:56:59.840Z,61.5
2023-02-11T13:58:06.116Z,60.5
2023-02-11T13:59:12.379Z,60.5
2023-02-11T14:00:18.650Z,61
2023-02-11T14:01:24.930Z,61.5
2023-02-11T14:02:31.226Z,61.5
2023-02-11T14:03:37.463Z,62
2023-02-11T14:04:42.761Z,62.5
2023-02-11T14:05:49.033Z,61.5
2023-02-11T14:06:54.369Z,63.5
2023-02-11T14:07:59.667Z,62.5
2023-02-11T14:09:05.905Z,63.5
2023-02-11T14:10:12.170Z,62
2023-02-11T14:11:18.452Z,61.5
2023-02-11T14:12:24.717Z,62.5
2023-02-11T14:13:31.000Z,63.5
2023-02-11T14:14:37.249Z,64
2023-02-11T14:15:43.553Z,61.5
2023-02-11T14:16:49.802Z,61.5
2023-02-11T14:17:56.065Z,61.5
2023-02-11T14:19:02.339Z,62.5
2023-02-11T14:20:08.617Z,62.5
2023-02-11T14:21:14.893Z,63
2023-02-11T14:22:20.199Z,63
2023-02-11T14:23:26.477Z,62.5
2023-02-11T14:24:32.722Z,63.5
2023-02-11T14:25:39.000Z,62
2023-02-11T14:26:45.265Z,62.5
2023-02-11T14:27:51.625Z,63
2023-02-11T14:28:57.839Z,64
2023-02-11T14:30:03.127Z,64.5
2023-02-11T14:31:08.421Z,65
2023-02-11T14:32:13.737Z,63
2023-02-11T14:33:18.999Z,61.5
2023-02-11T14:34:25.264Z,61.5
2023-02-11T14:35:31.542Z,61.5
2023-02-11T14:36:37.812Z,64
2023-02-11T14:37:44.091Z,64.5
2023-02-11T14:38:50.355Z,61.5
2023-02-11T14:39:56.626Z,63.5
2023-02-11T14:41:02.897Z,62
2023-02-11T14:42:09.174Z,61.5
2023-02-11T14:43:15.445Z,62.5
2023-02-11T14:44:21.711Z,63.5
2023-02-11T14:45:27.990Z,64.5
2023-02-11T14:46:34.265Z,65.5
2023-02-11T14:47:39.552Z,62
2023-02-11T14:48:45.825Z,62.5
2023-02-11T14:49:52.091Z,64
2023-02-11T14:50:58.430Z,65
2023-02-11T14:52:04.684Z,64.5
2023-02-11T14:53:10.909Z,64.5
2023-02-11T14:54:17.182Z,63.5
2023-02-11T14:55:22.481Z,65
2023-02-11T14:56:27.835Z,65
2023-02-11T14:57:34.047Z,65
2023-02-11T14:58:40.319Z,64.5
2023-02-11T14:59:46.588Z,64
2023-02-11T15:00:51.887Z,64
2023-02-11T15:01:57.175Z,63
2023-02-11T15:03:03.443Z,65
2023-02-11T15:04:09.709Z,65
2023-02-11T15:05:15.988Z,64
2023-02-11T15:06:22.258Z,63
2023-02-11T15:07:28.591Z,64
2023-02-11T15:08:34.805Z,65
2023-02-11T15:09:41.151Z,65
2023-02-11T15:10:47.338Z,65
2023-02-11T15:11:53.626Z,65.5
2023-02-11T15:13:00.041Z,65.5
2023-02-11T15:14:06.162Z,65